Duffau, Texas
Current Conditions -  °F | °C
As of 6:15 PM on Wednesday 22 Oct 2014 (Local Time) from KSEP Reporting Station
Clear Clear  
Wind Chill: 74°   Ceiling: Unl
Heat Index: 74°   Visibility: 10mi
Dew Point: 57°   Wind: 3mph
Humidity: 54%   Direction: 140°SE
Pressure: 30.12"   Gusts: NA
Location:  31.981°N, 98.033°W
Report Text: KSEP 222315Z AUTO 14003KT 10SM CLR 24/14 A3012 RMK AO2 T02350138
Loading
Personal Weather Stations






























Interactive Weather Map New forecast layout! Learn more

10-Day Weather Forecast

Advertisements
Track Severe Weather on mobile